Time;durP1;ratioP1;P1;durP2;ratioP2;P2;SDS_P1;SDS_P2;PMS_P1;PMS_P2;Temp;Humidity;BMP_temperature;BMP_pressure;BME280_temperature;BME280_humidity;BME280_pressure;Samples;Min_cycle;Max_cycle;Signal;HPM_P1;HPM_P2
2023/06/11 00:07:42;;;;;;;1999.90;999.90;;;23.20;91.50;;;;;;6738777;88;20315;-79
2023/06/11 00:17:42;;;;;;;1999.90;999.90;;;23.10;91.90;;;;;;6738351;88;20223;-79
2023/06/11 00:27:43;;;;;;;1999.90;999.90;;;23.10;92.40;;;;;;6740329;87;20247;-79
2023/06/11 00:37:43;;;;;;;1999.90;999.90;;;23.00;92.80;;;;;;6743148;87;20184;-78
2023/06/11 00:47:44;;;;;;;1999.90;999.90;;;22.90;93.10;;;;;;6743276;88;20605;-78
2023/06/11 00:57:44;;;;;;;1999.90;999.90;;;22.80;93.30;;;;;;6742794;88;20223;-79
2023/06/11 01:07:50;;;;;;;1999.90;999.90;;;22.70;94.10;;;;;;6738790;88;20213;-78
2023/06/11 01:17:57;;;;;;;1999.90;999.90;;;22.60;94.50;;;;;;6740073;88;20166;-78
2023/06/11 01:28:16;;;;;;;1999.90;999.90;;;22.50;95.10;;;;;;6744161;87;20617;-78
2023/06/11 01:38:17;;;;;;;1999.90;999.90;;;22.30;96.50;;;;;;6749090;88;20205;-77
2023/06/11 01:48:18;;;;;;;1999.90;999.90;;;22.30;97.00;;;;;;6743879;88;20197;-78
2023/06/11 01:58:18;;;;;;;1999.90;999.90;;;22.00;98.70;;;;;;6747781;88;20224;-78
2023/06/11 02:08:19;;;;;;;1999.90;999.90;;;21.70;99.90;;;;;;6750227;88;20192;-79
2023/06/11 02:18:20;;;;;;;1999.90;999.90;;;21.50;99.90;;;;;;6751679;76;20183;-80
2023/06/11 02:28:20;;;;;;;1999.90;999.90;;;21.30;99.90;;;;;;6671200;89;20587;-80
2023/06/11 02:38:21;;;;;;;1999.90;999.90;;;20.90;99.90;;;;;;6671027;89;20722;-79
2023/06/11 02:48:21;;;;;;;1999.90;999.90;;;20.80;99.90;;;;;;6670685;89;20651;-80
2023/06/11 02:58:22;;;;;;;1999.90;999.90;;;20.70;99.90;;;;;;6670552;89;20187;-80
2023/06/11 03:08:22;;;;;;;1999.90;999.90;;;20.50;99.90;;;;;;6670433;89;20766;-79
2023/06/11 03:18:23;;;;;;;1999.90;999.90;;;20.40;99.90;;;;;;6670924;89;20613;-80
2023/06/11 03:28:23;;;;;;;1999.90;999.90;;;20.40;99.90;;;;;;6657623;89;20173;-80
2023/06/11 03:38:24;;;;;;;1999.90;999.90;;;20.20;99.90;;;;;;6653568;89;20201;-79
2023/06/11 03:48:24;;;;;;;1999.90;999.90;;;20.20;99.90;;;;;;6664517;89;20645;-79
2023/06/11 03:58:25;;;;;;;1999.90;999.90;;;20.10;99.90;;;;;;6667827;89;20309;-79
2023/06/11 04:08:25;;;;;;;1999.90;999.90;;;20.10;99.90;;;;;;6670042;89;20191;-79
2023/06/11 04:18:27;;;;;;;1999.90;999.90;;;20.00;99.90;;;;;;6658406;89;20207;-80
2023/06/11 04:28:28;;;;;;;1999.90;999.90;;;20.00;99.90;;;;;;6670576;89;20191;-80
2023/06/11 04:38:28;;;;;;;1999.90;999.90;;;19.80;99.90;;;;;;6670793;89;20677;-80
2023/06/11 04:48:31;;;;;;;1999.90;999.90;;;19.90;99.90;;;;;;6652518;88;20252;-80
2023/06/11 04:58:32;;;;;;;1999.90;999.90;;;20.00;99.90;;;;;;6654314;88;20307;-82
2023/06/11 05:08:33;;;;;;;1999.90;999.90;;;20.20;99.90;;;;;;6665598;89;20233;-79
2023/06/11 05:18:33;;;;;;;1999.90;999.90;;;20.40;99.90;;;;;;6673213;89;20786;-79
2023/06/11 05:28:34;;;;;;;1999.90;999.90;;;20.50;99.90;;;;;;6671812;89;20243;-79
2023/06/11 05:38:37;;;;;;;1999.90;999.90;;;20.70;99.90;;;;;;6664008;89;20236;-79
2023/06/11 05:48:37;;;;;;;1999.90;999.90;;;20.90;99.90;;;;;;6667763;88;20210;-80
2023/06/11 05:58:38;;;;;;;1999.90;999.90;;;21.20;99.90;;;;;;6672039;89;20694;-79
2023/06/11 06:08:38;;;;;;;1999.90;999.90;;;21.90;99.90;;;;;;6671981;89;20583;-79
2023/06/11 06:18:39;;;;;;;1999.90;999.90;;;22.70;99.90;;;;;;6671657;89;20656;-79
2023/06/11 06:28:40;;;;;;;1999.90;999.90;;;23.40;99.90;;;;;;6665072;89;20219;-79
2023/06/11 06:38:40;;;;;;;1999.90;999.90;;;23.70;99.90;;;;;;6663559;89;20249;-78
2023/06/11 06:48:41;;;;;;;1999.90;999.90;;;23.70;99.90;;;;;;6670267;89;20202;-79
2023/06/11 06:58:42;;;;;;;1999.90;999.90;;;24.20;99.90;;;;;;6659918;89;20195;-77
2023/06/11 07:08:42;;;;;;;1999.90;999.90;;;24.60;99.90;;;;;;6665660;89;20231;-78
2023/06/11 07:18:43;;;;;;;1999.90;999.90;;;24.90;99.90;;;;;;6661654;89;20238;-78
2023/06/11 07:28:43;;;;;;;1999.90;999.90;;;25.40;99.90;;;;;;6662743;89;20192;-79
2023/06/11 07:38:44;;;;;;;1999.90;999.90;;;25.70;99.90;;;;;;6655062;89;20641;-79
2023/06/11 07:48:45;;;;;;;1999.90;999.90;;;25.50;99.60;;;;;;6659995;89;20179;-80
2023/06/11 07:58:45;;;;;;;1999.90;999.90;;;25.90;99.50;;;;;;6664614;88;20242;-77
2023/06/11 08:08:47;;;;;;;1999.90;999.90;;;26.30;98.90;;;;;;6664758;88;20531;-80
2023/06/11 08:28:52;;;;;;;1999.90;999.90;;;27.20;97.90;;;;;;6693487;88;20233;-81
2023/06/11 08:38:52;;;;;;;1999.90;999.90;;;27.10;97.50;;;;;;6694230;87;20202;-81
2023/06/11 08:48:58;;;;;;;1999.90;999.90;;;27.70;96.60;;;;;;6696515;87;20198;-81
2023/06/11 08:59:02;;;;;;;1999.90;999.90;;;27.60;95.30;;;;;;6696103;88;20294;-82
2023/06/11 09:09:05;;;;;;;1999.90;999.90;;;27.70;93.40;;;;;;6696905;87;20184;-81
2023/06/11 09:19:05;;;;;;;1999.90;999.90;;;28.30;92.50;;;;;;6677159;89;20220;-82
2023/06/11 09:29:06;;;;;;;1999.90;999.90;;;28.30;91.40;;;;;;6677286;89;20184;-81
2023/06/11 09:39:07;;;;;;;1999.90;999.90;;;28.50;90.10;;;;;;6677581;89;20184;-85
2023/06/11 09:49:08;;;;;;;1999.90;999.90;;;28.70;90.10;;;;;;6692501;87;20223;-82
2023/06/11 09:59:12;;;;;;;1999.90;999.90;;;28.90;89.70;;;;;;6692864;87;20341;-81
2023/06/11 10:09:14;;;;;;;1999.90;999.90;;;29.60;86.70;;;;;;6695901;87;20262;-80
2023/06/11 10:19:14;;;;;;;;;;;29.70;84.00;;;;;;6693457;87;20178;-81
2023/06/11 10:29:25;;;;;;;1999.90;999.90;;;29.80;81.80;;;;;;6694509;87;20053;-80
2023/06/11 10:39:26;;;;;;;1999.90;999.90;;;29.70;81.00;;;;;;6692414;87;20180;-82
2023/06/11 10:49:27;;;;;;;1999.90;999.90;;;30.20;81.90;;;;;;6696971;87;20160;-81
2023/06/11 10:59:29;;;;;;;1999.90;999.90;;;30.20;80.40;;;;;;6695787;87;20204;-82
2023/06/11 11:09:30;;;;;;;1999.90;999.90;;;32.00;78.20;;;;;;6691997;87;20619;-81
2023/06/11 11:19:30;;;;;;;1999.90;999.90;;;31.00;76.20;;;;;;6694577;87;20315;-81
2023/06/11 11:29:31;;;;;;;1999.90;999.90;;;31.50;75.60;;;;;;6689065;89;20232;-81
2023/06/11 11:39:32;;;;;;;1999.90;999.90;;;31.20;74.20;;;;;;6687938;88;20229;-81
2023/06/11 11:49:34;;;;;;;1999.90;999.90;;;32.50;72.50;;;;;;6679645;89;20198;-78
2023/06/11 11:59:38;;;;;;;1999.90;999.90;;;32.20;70.20;;;;;;6679304;88;20204;-81
2023/06/11 12:09:39;;;;;;;1999.90;999.90;;;32.20;70.40;;;;;;6654930;88;20184;-79
2023/06/11 12:19:40;;;;;;;1999.90;999.90;;;31.90;69.00;;;;;;6660658;89;20184;-80
2023/06/11 12:39:44;;;;;;;1999.90;999.90;;;32.50;68.40;;;;;;6666832;89;20215;-79
2023/06/11 12:49:45;;;;;;;1999.90;999.90;;;32.40;66.70;;;;;;6668080;89;20553;-79
2023/06/11 12:59:46;;;;;;;;;;;33.50;67.10;;;;;;6663611;88;20210;-81
2023/06/11 13:09:47;;;;;;;1999.90;999.90;;;33.10;67.10;;;;;;6725704;88;20072;-80
2023/06/11 13:19:48;;;;;;;1999.90;999.90;;;32.00;65.20;;;;;;6717144;88;20179;-80
2023/06/11 13:29:49;;;;;;;1999.90;999.90;;;32.00;66.20;;;;;;6718403;88;20314;-80
2023/06/11 13:39:49;;;;;;;1999.90;999.90;;;32.60;67.00;;;;;;6691031;88;20944;-79
2023/06/11 13:49:50;;;;;;;1999.90;999.90;;;31.90;65.60;;;;;;6686724;89;20199;-80
2023/06/11 13:59:51;;;;;;;1999.90;999.90;;;32.70;65.40;;;;;;6681509;89;20285;-81
2023/06/11 14:09:52;;;;;;;1999.90;999.90;;;32.20;64.80;;;;;;6681697;89;20219;-79
2023/06/11 14:29:56;;;;;;;1999.90;999.90;;;32.90;62.10;;;;;;6744765;87;20062;-80
2023/06/11 14:39:57;;;;;;;1999.90;999.90;;;32.90;63.60;;;;;;6732306;88;20213;-80
2023/06/11 14:49:57;;;;;;;1999.90;999.90;;;32.80;64.10;;;;;;6742744;88;20198;-79
2023/06/11 14:59:58;;;;;;;1999.90;999.90;;;33.20;65.40;;;;;;6733067;88;20287;-79
2023/06/11 15:10:01;;;;;;;1999.90;999.90;;;32.30;65.70;;;;;;6741813;88;20387;-78
2023/06/11 15:20:04;;;;;;;1999.90;999.90;;;33.10;64.70;;;;;;6737603;88;20221;-79
2023/06/11 15:30:06;;;;;;;1999.90;999.90;;;32.80;64.20;;;;;;6741134;88;20169;-79
2023/06/11 15:40:07;;;;;;;1999.90;999.90;;;33.30;64.70;;;;;;6739773;88;20190;-79
2023/06/11 15:50:08;;;;;;;1999.90;999.90;;;33.40;63.90;;;;;;6731949;88;20265;-78
2023/06/11 16:00:08;;;;;;;;;;;33.20;63.30;;;;;;6740451;88;20197;-79
2023/06/11 16:10:09;;;;;;;1999.90;999.90;;;32.60;63.20;;;;;;6728429;88;20058;-78
2023/06/11 16:20:11;;;;;;;1999.90;999.90;;;32.70;63.50;;;;;;6726250;88;20517;-79
2023/06/11 16:30:12;;;;;;;1999.90;999.90;;;31.30;63.10;;;;;;6727412;88;20212;-79
2023/06/11 16:40:12;;;;;;;1999.90;999.90;;;31.40;63.80;;;;;;6730509;88;20290;-80
2023/06/11 16:50:13;;;;;;;1999.90;999.90;;;31.50;63.50;;;;;;6733150;88;20185;-79
2023/06/11 17:00:16;;;;;;;1999.90;999.90;;;31.60;63.00;;;;;;6730123;88;20226;-79
2023/06/11 17:10:17;;;;;;;1999.90;999.90;;;31.50;63.00;;;;;;6733794;88;20211;-79
2023/06/11 17:20:18;;;;;;;1999.90;999.90;;;31.20;64.00;;;;;;6739948;88;20810;-79
2023/06/11 17:30:18;;;;;;;1999.90;999.90;;;31.40;63.90;;;;;;6735001;88;20221;-79
2023/06/11 17:40:19;;;;;;;1999.90;999.90;;;31.50;63.70;;;;;;6731917;88;20667;-79
2023/06/11 17:50:19;;;;;;;1999.90;999.90;;;30.90;63.80;;;;;;6731427;88;20200;-78
2023/06/11 18:00:20;;;;;;;1999.90;999.90;;;30.80;63.40;;;;;;6744318;88;20206;-79
2023/06/11 18:10:20;;;;;;;1999.90;999.90;;;30.70;63.20;;;;;;6734001;88;20190;-79
2023/06/11 18:20:21;;;;;;;1999.90;999.90;;;30.20;61.90;;;;;;6724582;88;20758;-79
2023/06/11 18:30:22;;;;;;;1999.90;999.90;;;29.70;61.50;;;;;;6733628;88;20185;-79
2023/06/11 18:40:22;;;;;;;1999.90;999.90;;;29.40;61.90;;;;;;6730895;88;20406;-78
2023/06/11 18:50:23;;;;;;;1999.90;999.90;;;29.10;62.00;;;;;;6733303;88;20192;-78
2023/06/11 19:00:24;;;;;;;1999.90;999.90;;;28.80;62.30;;;;;;6735832;88;20571;-78
2023/06/11 19:10:26;;;;;;;1999.90;999.90;;;28.30;62.00;;;;;;6732614;88;20223;-81
2023/06/11 19:20:27;;;;;;;1999.90;999.90;;;27.90;62.60;;;;;;6738867;88;20259;-81
2023/06/11 19:30:27;;;;;;;1999.90;999.90;;;27.70;63.20;;;;;;6733979;88;20234;-81
2023/06/11 19:40:28;;;;;;;1999.90;999.90;;;27.30;63.10;;;;;;6741334;88;20273;-81
2023/06/11 19:50:30;;;;;;;1999.90;999.90;;;27.10;63.90;;;;;;6734620;88;20212;-80
2023/06/11 20:00:30;;;;;;;1999.90;999.90;;;26.80;64.50;;;;;;6741200;88;20197;-80
2023/06/11 20:10:38;;;;;;;1999.90;999.90;;;26.50;65.20;;;;;;6743708;88;20318;-79
2023/06/11 20:20:38;;;;;;;1999.90;999.90;;;26.20;65.70;;;;;;6741045;88;20640;-79
2023/06/11 20:40:43;;;;;;;;;;;25.60;66.80;;;;;;6792068;87;20335;-79
2023/06/11 20:50:44;;;;;;;1999.90;999.90;;;25.30;66.70;;;;;;6773353;87;20048;-79
2023/06/11 21:00:45;;;;;;;1999.90;999.90;;;25.10;67.20;;;;;;6781653;87;20189;-78
2023/06/11 21:10:46;;;;;;;1999.90;999.90;;;24.90;67.00;;;;;;6772339;87;20182;-78
2023/06/11 21:20:46;;;;;;;1999.90;999.90;;;24.70;66.20;;;;;;6777363;87;20205;-78
2023/06/11 21:30:47;;;;;;;1999.90;999.90;;;24.70;66.60;;;;;;6766782;88;20384;-78
2023/06/11 21:40:47;;;;;;;1999.90;999.90;;;24.60;65.90;;;;;;6743453;88;20193;-79
2023/06/11 21:50:48;;;;;;;1999.90;999.90;;;24.50;66.50;;;;;;6743999;88;20197;-79
2023/06/11 22:00:49;;;;;;;1999.90;999.90;;;24.30;65.50;;;;;;6735644;88;20206;-79
2023/06/11 22:10:49;;;;;;;1999.90;999.90;;;24.20;65.80;;;;;;6762543;88;20267;-80
2023/06/11 22:20:50;;;;;;;1999.90;999.90;;;24.10;65.60;;;;;;6767933;88;20294;-78
2023/06/11 22:30:50;;;;;;;1999.90;999.90;;;23.90;65.90;;;;;;6778760;87;20158;-78
2023/06/11 22:40:51;;;;;;;1999.90;999.90;;;23.70;66.00;;;;;;6775928;87;20881;-78
2023/06/11 22:50:52;;;;;;;1999.90;999.90;;;23.80;65.10;;;;;;6773652;88;20228;-79
2023/06/11 23:00:54;;;;;;;1999.90;999.90;;;23.80;64.20;;;;;;6779247;87;20184;-77
2023/06/11 23:10:55;;;;;;;1999.90;999.90;;;23.80;64.00;;;;;;6767760;88;20168;-78
2023/06/11 23:20:58;;;;;;;1999.90;999.90;;;23.70;64.10;;;;;;6774074;87;20187;-77
2023/06/11 23:30:59;;;;;;;1999.90;999.90;;;23.50;64.20;;;;;;6774814;87;20193;-79
2023/06/11 23:41:00;;;;;;;1999.90;999.90;;;23.50;64.90;;;;;;6777656;87;20193;-77
2023/06/11 23:51:01;;;;;;;1999.90;999.90;;;23.00;68.40;;;;;;6781736;88;20598;-80
